Time;durP1;ratioP1;P1;durP2;ratioP2;P2;SDS_P1;SDS_P2;PMS_P1;PMS_P2;Temp;Humidity;BMP_temperature;BMP_pressure;BME280_temperature;BME280_humidity;BME280_pressure;Samples;Min_cycle;Max_cycle;Signal;HPM_P1;HPM_P2
2022/01/08 00:00:14;;;;;;;21.38;9.60;;;;;;;;;;6242387;28;20049;-65
2022/01/08 00:03:37;;;;;;;25.63;11.25;;;;;;;;;;6242335;28;20638;-65
2022/01/08 00:06:42;;;;;;;28.08;10.10;;;;;;;;;;6240779;28;20049;-64
2022/01/08 00:09:48;;;;;;;23.67;10.35;;;;;;;;;;6242559;28;20054;-64
2022/01/08 00:12:56;;;;;;;23.70;9.57;;;;;;;;;;6242393;28;20052;-65
2022/01/08 00:15:59;;;;;;;22.58;10.13;;;;;;;;;;6241252;28;20363;-65
2022/01/08 00:19:02;;;;;;;24.10;10.07;;;;;;;;;;6242445;28;20431;-65
2022/01/08 00:22:05;;;;;;;20.65;9.43;;;;;;;;;;6240737;28;20381;-65
2022/01/08 00:25:08;;;;;;;19.30;9.05;;;;;;;;;;6241932;28;20068;-65
2022/01/08 00:28:12;;;;;;;23.23;9.55;;;;;;;;;;6241848;28;20056;-65
2022/01/08 00:31:15;;;;;;;22.70;9.90;;;;;;;;;;6240799;28;20060;-65
2022/01/08 00:34:18;;;;;;;22.50;10.60;;;;;;;;;;6242024;28;20045;-66
2022/01/08 00:37:21;;;;;;;22.83;9.82;;;;;;;;;;6240009;28;20049;-65
2022/01/08 00:40:24;;;;;;;23.90;10.00;;;;;;;;;;6240824;28;20446;-64
2022/01/08 00:43:28;;;;;;;23.85;11.35;;;;;;;;;;6241704;28;20056;-67
2022/01/08 00:46:31;;;;;;;21.08;9.20;;;;;;;;;;6241407;28;20045;-64
2022/01/08 00:49:35;;;;;;;22.98;9.70;;;;;;;;;;6241960;28;20053;-64
2022/01/08 00:52:38;;;;;;;23.83;9.80;;;;;;;;;;6242331;28;20052;-63
2022/01/08 00:55:40;;;;;;;21.08;10.25;;;;;;;;;;6246423;28;20430;-64
2022/01/08 00:58:45;;;;;;;23.17;10.57;;;;;;;;;;6244682;28;20045;-66
2022/01/08 01:01:48;;;;;;;25.45;10.65;;;;;;;;;;6246602;28;20045;-64
2022/01/08 01:04:51;;;;;;;24.83;10.05;;;;;;;;;;6245383;28;20052;-66
2022/01/08 01:07:54;;;;;;;22.70;10.57;;;;;;;;;;6245600;28;20496;-66
2022/01/08 01:10:59;;;;;;;;;;;;;;;;;;6247151;28;20054;-66
2022/01/08 01:14:06;;;;;;;22.73;9.77;;;;;;;;;;6245891;28;20287;-66
2022/01/08 01:17:09;;;;;;;22.42;9.77;;;;;;;;;;6244529;28;20087;-66
2022/01/08 01:20:13;;;;;;;21.80;10.27;;;;;;;;;;6245951;28;20541;-66
2022/01/08 01:23:20;;;;;;;21.48;9.30;;;;;;;;;;6244758;28;20092;-65
2022/01/08 01:26:26;;;;;;;20.55;10.60;;;;;;;;;;6244879;28;20641;-66
2022/01/08 01:29:38;;;;;;;17.92;8.77;;;;;;;;;;6245090;28;20049;-66
2022/01/08 01:43:07;;;;;;;24.95;9.90;;;;;;;;;;6244953;28;20050;-64
2022/01/08 01:49:32;;;;;;;20.15;9.13;;;;;;;;;;6245493;28;20115;-66
2022/01/08 01:52:35;;;;;;;24.27;11.38;;;;;;;;;;6245083;28;20041;-66
2022/01/08 01:55:38;;;;;;;22.90;11.10;;;;;;;;;;6244532;28;20037;-66
2022/01/08 01:58:44;;;;;;;22.95;10.40;;;;;;;;;;6245264;28;20046;-66
2022/01/08 02:01:49;;;;;;;21.60;9.52;;;;;;;;;;6243583;28;20046;-64
2022/01/08 02:04:52;;;;;;;22.05;9.35;;;;;;;;;;6244136;28;20045;-66
2022/01/08 02:07:58;;;;;;;20.33;9.90;;;;;;;;;;6243476;28;20053;-66
2022/01/08 02:11:00;;;;;;;20.40;9.50;;;;;;;;;;6244952;28;20294;-64
2022/01/08 02:14:06;;;;;;;22.15;9.90;;;;;;;;;;6244682;28;20045;-66
2022/01/08 02:17:10;;;;;;;19.85;9.77;;;;;;;;;;6244116;28;20052;-66
2022/01/08 02:20:15;;;;;;;20.23;9.32;;;;;;;;;;6244985;28;20096;-66
2022/01/08 02:23:17;;;;;;;19.15;8.70;;;;;;;;;;6244420;28;20056;-64
2022/01/08 02:26:20;;;;;;;21.48;8.60;;;;;;;;;;6244222;28;20046;-64
2022/01/08 02:29:24;;;;;;;21.25;8.98;;;;;;;;;;6243148;28;20041;-64
2022/01/08 02:32:30;;;;;;;19.80;8.60;;;;;;;;;;6244296;28;20072;-64
2022/01/08 02:35:35;;;;;;;18.83;8.95;;;;;;;;;;6244256;28;20048;-64
2022/01/08 02:38:38;;;;;;;20.17;8.55;;;;;;;;;;6243417;28;20092;-65
2022/01/08 02:41:41;;;;;;;21.40;8.43;;;;;;;;;;6244155;28;20145;-64
2022/01/08 02:44:44;;;;;;;18.80;9.07;;;;;;;;;;6243731;28;20049;-65
2022/01/08 02:47:56;;;;;;;18.90;8.77;;;;;;;;;;6243846;28;20049;-64
2022/01/08 02:51:00;;;;;;;17.25;8.82;;;;;;;;;;6243500;28;20050;-65
2022/01/08 02:54:04;;;;;;;20.48;8.25;;;;;;;;;;6243824;28;20523;-65
2022/01/08 02:57:07;;;;;;;20.40;8.50;;;;;;;;;;6243646;28;20484;-65
2022/01/08 03:00:11;;;;;;;17.27;8.02;;;;;;;;;;6241655;28;20077;-65
2022/01/08 03:03:14;;;;;;;19.77;8.63;;;;;;;;;;6244086;28;20065;-64
2022/01/08 03:06:19;;;;;;;23.23;8.75;;;;;;;;;;6243172;28;20060;-66
2022/01/08 03:09:22;;;;;;;16.02;7.40;;;;;;;;;;6242933;28;20045;-65
2022/01/08 03:12:26;;;;;;;20.40;8.27;;;;;;;;;;6242399;28;20045;-65
2022/01/08 03:15:32;;;;;;;19.23;8.80;;;;;;;;;;6243045;28;20049;-64
2022/01/08 03:18:37;;;;;;;17.58;8.45;;;;;;;;;;6243337;28;20107;-65
2022/01/08 03:21:44;;;;;;;20.67;8.40;;;;;;;;;;6241118;28;20053;-66
2022/01/08 03:24:47;;;;;;;18.38;8.68;;;;;;;;;;6243470;28;20784;-65
2022/01/08 03:27:53;;;;;;;19.15;8.25;;;;;;;;;;6242906;28;20403;-65
2022/01/08 03:30:56;;;;;;;17.92;7.15;;;;;;;;;;6241215;28;20083;-64
2022/01/08 03:33:59;;;;;;;14.70;8.02;;;;;;;;;;6241682;28;20049;-65
2022/01/08 03:37:03;;;;;;;19.92;8.10;;;;;;;;;;6242689;28;20045;-65
2022/01/08 03:40:07;;;;;;;19.38;7.72;;;;;;;;;;6241216;28;20397;-64
2022/01/08 03:43:10;;;;;;;17.25;7.80;;;;;;;;;;6240970;28;20069;-64
2022/01/08 03:46:13;;;;;;;16.15;7.22;;;;;;;;;;6242866;28;20048;-64
2022/01/08 03:49:24;;;;;;;20.95;8.18;;;;;;;;;;6242412;28;20622;-64
2022/01/08 03:52:28;;;;;;;15.95;7.07;;;;;;;;;;6242101;28;20053;-64
2022/01/08 03:55:33;;;;;;;;;;;;;;;;;;6242227;28;20049;-63
2022/01/08 03:58:36;;;;;;;19.05;7.55;;;;;;;;;;6241030;28;20341;-63
2022/01/08 04:01:39;;;;;;;19.15;7.70;;;;;;;;;;6242879;28;20136;-63
2022/01/08 04:04:42;;;;;;;15.20;7.68;;;;;;;;;;6240605;28;20045;-64
2022/01/08 04:07:47;;;;;;;17.40;7.47;;;;;;;;;;6241210;28;20045;-65
2022/01/08 04:10:50;;;;;;;16.02;7.40;;;;;;;;;;6240815;28;20484;-63
2022/01/08 04:13:53;;;;;;;16.08;7.30;;;;;;;;;;6241475;28;20132;-64
2022/01/08 04:16:56;;;;;;;17.63;7.80;;;;;;;;;;6242712;28;20046;-65
2022/01/08 04:19:59;;;;;;;16.40;7.22;;;;;;;;;;6240657;28;20056;-63
2022/01/08 04:23:03;;;;;;;16.35;7.47;;;;;;;;;;6242187;28;20049;-65
2022/01/08 04:26:06;;;;;;;15.73;7.13;;;;;;;;;;6242130;28;20048;-63
2022/01/08 04:29:10;;;;;;;16.08;7.10;;;;;;;;;;6247023;28;20045;-63
2022/01/08 04:32:15;;;;;;;20.23;7.38;;;;;;;;;;6247395;28;20033;-65
2022/01/08 04:35:18;;;;;;;16.00;6.85;;;;;;;;;;6244913;28;20054;-65
2022/01/08 04:38:23;;;;;;;15.77;6.85;;;;;;;;;;6245954;28;20120;-63
2022/01/08 04:41:26;;;;;;;16.02;6.78;;;;;;;;;;6246447;28;20053;-64
2022/01/08 04:44:29;;;;;;;14.30;6.82;;;;;;;;;;6246388;28;20041;-64
2022/01/08 04:47:32;;;;;;;14.75;6.72;;;;;;;;;;6245460;28;20046;-65
2022/01/08 04:50:35;;;;;;;17.23;6.78;;;;;;;;;;6246619;28;20053;-63
2022/01/08 04:53:39;;;;;;;11.00;5.72;;;;;;;;;;6247079;28;20057;-64
2022/01/08 04:56:42;;;;;;;13.18;6.13;;;;;;;;;;6245919;28;20443;-66
2022/01/08 04:59:47;;;;;;;12.20;5.90;;;;;;;;;;6245402;28;20045;-64
2022/01/08 05:02:50;;;;;;;12.52;5.47;;;;;;;;;;6244850;28;20049;-65
2022/01/08 05:05:53;;;;;;;16.58;5.88;;;;;;;;;;6244630;28;20048;-64
2022/01/08 05:08:58;;;;;;;13.30;5.32;;;;;;;;;;6246620;28;20053;-66
2022/01/08 05:12:01;;;;;;;15.98;8.35;;;;;;;;;;6245919;28;20443;-66
2022/01/08 05:15:04;;;;;;;12.35;5.93;;;;;;;;;;6245816;28;20430;-66
2022/01/08 05:18:09;;;;;;;10.90;5.40;;;;;;;;;;6245967;28;20385;-65
2022/01/08 05:21:22;;;;;;;12.13;5.35;;;;;;;;;;6246188;28;20049;-65
2022/01/08 05:24:26;;;;;;;12.25;5.75;;;;;;;;;;6245721;28;20393;-66
2022/01/08 05:27:29;;;;;;;10.95;5.53;;;;;;;;;;6243774;28;20069;-67
2022/01/08 05:30:34;;;;;;;15.23;6.75;;;;;;;;;;6244792;28;20775;-65
2022/01/08 05:33:37;;;;;;;15.23;5.97;;;;;;;;;;6245366;28;20056;-65
2022/01/08 05:36:40;;;;;;;14.63;6.47;;;;;;;;;;6245623;28;20053;-66
2022/01/08 05:39:46;;;;;;;13.85;5.63;;;;;;;;;;6243776;28;20057;-67
2022/01/08 05:42:49;;;;;;;16.58;6.47;;;;;;;;;;6245583;28;20053;-66
2022/01/08 05:45:56;;;;;;;15.35;6.20;;;;;;;;;;6245364;28;20046;-65
2022/01/08 05:49:02;;;;;;;16.00;5.88;;;;;;;;;;6244837;28;20056;-67
2022/01/08 05:52:05;;;;;;;12.63;6.00;;;;;;;;;;6245594;28;20049;-67
2022/01/08 05:55:12;;;;;;;17.48;6.55;;;;;;;;;;6244931;28;20045;-67
2022/01/08 05:58:14;;;;;;;14.52;6.35;;;;;;;;;;6244788;28;20069;-67
2022/01/08 06:01:17;;;;;;;15.45;6.05;;;;;;;;;;6243502;28;20168;-67
2022/01/08 06:04:20;;;;;;;15.75;6.85;;;;;;;;;;6245093;28;20128;-68
2022/01/08 06:07:23;;;;;;;15.65;6.38;;;;;;;;;;6244859;28;20041;-67
2022/01/08 06:10:27;;;;;;;15.00;6.82;;;;;;;;;;6244146;28;20054;-67
2022/01/08 06:13:30;;;;;;;12.32;6.57;;;;;;;;;;6245043;28;20049;-66
2022/01/08 06:16:35;;;;;;;17.20;6.00;;;;;;;;;;6242956;28;20045;-68
2022/01/08 06:19:38;;;;;;;12.00;6.15;;;;;;;;;;6244385;28;20053;-67
2022/01/08 06:22:41;;;;;;;18.08;6.90;;;;;;;;;;6244575;28;20045;-65
2022/01/08 06:25:45;;;;;;;15.80;6.20;;;;;;;;;;6244265;28;20064;-66
2022/01/08 06:28:51;;;;;;;12.10;5.97;;;;;;;;;;6244262;28;20049;-66
2022/01/08 06:31:57;;;;;;;16.15;6.65;;;;;;;;;;6242431;28;20574;-66
2022/01/08 06:35:01;;;;;;;17.52;6.25;;;;;;;;;;6244503;28;20283;-66
2022/01/08 06:38:04;;;;;;;15.18;6.65;;;;;;;;;;6243874;28;20041;-66
2022/01/08 06:41:08;;;;;;;12.65;6.13;;;;;;;;;;6243241;28;20054;-66
2022/01/08 06:44:11;;;;;;;14.57;6.53;;;;;;;;;;6244495;28;20048;-66
2022/01/08 06:47:14;;;;;;;14.55;5.95;;;;;;;;;;6243769;28;20046;-66
2022/01/08 06:50:20;;;;;;;15.60;7.00;;;;;;;;;;6243337;28;20120;-65
2022/01/08 06:53:23;;;;;;;14.90;6.30;;;;;;;;;;6242367;28;20053;-65
2022/01/08 06:56:29;;;;;;;19.40;7.45;;;;;;;;;;6244071;28;20033;-65
2022/01/08 06:59:32;;;;;;;12.80;6.45;;;;;;;;;;6242268;28;20488;-65
2022/01/08 07:02:37;;;;;;;13.70;6.55;;;;;;;;;;6242716;28;20200;-65
2022/01/08 07:05:41;;;;;;;17.85;6.80;;;;;;;;;;6242515;28;20056;-66
2022/01/08 07:08:44;;;;;;;16.40;5.80;;;;;;;;;;6243181;28;20042;-65
2022/01/08 07:11:48;;;;;;;14.55;6.68;;;;;;;;;;6241899;28;20045;-66
2022/01/08 07:14:51;;;;;;;15.23;6.70;;;;;;;;;;6243179;28;20072;-66
2022/01/08 07:17:56;;;;;;;14.85;6.60;;;;;;;;;;6242067;28;20535;-65
2022/01/08 07:20:59;;;;;;;12.60;6.13;;;;;;;;;;6243042;28;20046;-67
2022/01/08 07:24:04;;;;;;;16.65;6.70;;;;;;;;;;6241121;28;20061;-66
2022/01/08 07:27:09;;;;;;;12.52;6.38;;;;;;;;;;6242199;28;20104;-66
2022/01/08 07:30:12;;;;;;;14.68;6.65;;;;;;;;;;6243011;28;20484;-67
2022/01/08 07:33:15;;;;;;;14.70;6.38;;;;;;;;;;6242528;28;20105;-67
2022/01/08 07:36:19;;;;;;;13.98;6.32;;;;;;;;;;6242700;28;20521;-66
2022/01/08 07:39:22;;;;;;;13.77;5.57;;;;;;;;;;6242772;28;20099;-67
2022/01/08 07:42:26;;;;;;;12.30;6.07;;;;;;;;;;6242929;28;20103;-66
2022/01/08 07:45:32;;;;;;;16.80;6.75;;;;;;;;;;6240615;28;20190;-66
2022/01/08 07:48:35;;;;;;;11.18;5.75;;;;;;;;;;6243016;28;20835;-66
2022/01/08 07:51:40;;;;;;;13.60;6.33;;;;;;;;;;6241102;28;20218;-66
2022/01/08 07:54:43;;;;;;;16.20;6.78;;;;;;;;;;6240474;28;20294;-67
2022/01/08 07:57:48;;;;;;;13.52;6.32;;;;;;;;;;6242638;28;20083;-66
2022/01/08 08:00:51;;;;;;;17.23;7.25;;;;;;;;;;6242102;28;20055;-66
2022/01/08 08:03:57;;;;;;;16.00;7.78;;;;;;;;;;6240540;28;20500;-66
2022/01/08 08:07:00;;;;;;;18.42;8.43;;;;;;;;;;6242359;28;20059;-66
2022/01/08 08:10:03;;;;;;;18.80;8.85;;;;;;;;;;6242542;28;20061;-66
2022/01/08 08:13:07;;;;;;;24.02;9.05;;;;;;;;;;6240672;28;20053;-68
2022/01/08 08:16:10;;;;;;;16.50;8.13;;;;;;;;;;6241148;28;20214;-67
2022/01/08 08:19:13;;;;;;;15.85;7.68;;;;;;;;;;6242395;28;20056;-66
2022/01/08 08:22:16;;;;;;;15.52;7.82;;;;;;;;;;6242234;28;20041;-66
2022/01/08 08:25:19;;;;;;;17.75;8.20;;;;;;;;;;6240379;28;20565;-68
2022/01/08 08:28:23;;;;;;;17.67;7.95;;;;;;;;;;6241964;28;20049;-66
2022/01/08 08:31:26;;;;;;;18.45;7.60;;;;;;;;;;6242138;28;20045;-65
2022/01/08 08:34:29;;;;;;;18.48;8.13;;;;;;;;;;6241777;28;20259;-66
2022/01/08 08:37:32;;;;;;;17.85;8.43;;;;;;;;;;6241345;28;20056;-66
2022/01/08 08:40:38;;;;;;;20.90;8.20;;;;;;;;;;6242081;28;20432;-66
2022/01/08 08:43:42;;;;;;;24.25;8.38;;;;;;;;;;6241608;28;20046;-66
2022/01/08 08:46:47;;;;;;;18.77;7.93;;;;;;;;;;6241305;28;20049;-67
2022/01/08 08:49:50;;;;;;;17.67;7.28;;;;;;;;;;6241749;28;20047;-66
2022/01/08 08:52:54;;;;;;;16.13;8.05;;;;;;;;;;6241752;28;20052;-67
2022/01/08 08:55:56;;;;;;;19.05;8.65;;;;;;;;;;6241487;28;20056;-66
2022/01/08 08:59:01;;;;;;;21.10;8.25;;;;;;;;;;6239900;28;20099;-67
2022/01/08 09:02:04;;;;;;;16.88;8.48;;;;;;;;;;6242072;28;20527;-68
2022/01/08 09:05:08;;;;;;;20.63;8.75;;;;;;;;;;6241509;28;20091;-67
2022/01/08 09:08:11;;;;;;;19.13;8.98;;;;;;;;;;6239700;28;20327;-67
2022/01/08 09:11:14;;;;;;;16.65;9.15;;;;;;;;;;6241941;28;20045;-68
2022/01/08 09:14:18;;;;;;;18.83;9.07;;;;;;;;;;6244535;28;20108;-66
2022/01/08 09:17:24;;;;;;;23.00;8.73;;;;;;;;;;6245648;28;20389;-68
2022/01/08 09:20:28;;;;;;;21.20;9.65;;;;;;;;;;6245526;28;20045;-66
2022/01/08 09:23:33;;;;;;;21.10;9.75;;;;;;;;;;6245043;28;20096;-65
2022/01/08 09:26:35;;;;;;;21.27;10.15;;;;;;;;;;6245882;28;20046;-66
2022/01/08 09:29:40;;;;;;;16.60;8.45;;;;;;;;;;6243765;28;20049;-66
2022/01/08 09:32:44;;;;;;;21.73;9.52;;;;;;;;;;6246051;28;20041;-66
2022/01/08 09:35:50;;;;;;;18.25;8.25;;;;;;;;;;6244462;28;20053;-66
2022/01/08 09:38:53;;;;;;;20.52;9.75;;;;;;;;;;6244826;28;20519;-68
2022/01/08 09:41:56;;;;;;;19.85;9.70;;;;;;;;;;6245274;28;20060;-68
2022/01/08 09:45:00;;;;;;;21.23;9.73;;;;;;;;;;6245648;28;20472;-68
2022/01/08 09:48:03;;;;;;;22.50;9.15;;;;;;;;;;6243895;28;20045;-67
2022/01/08 09:51:06;;;;;;;20.83;9.43;;;;;;;;;;6244416;28;20053;-66
2022/01/08 09:54:09;;;;;;;22.83;9.70;;;;;;;;;;6245500;28;20119;-66
2022/01/08 09:57:14;;;;;;;20.10;9.50;;;;;;;;;;6243586;28;20069;-66
2022/01/08 10:00:19;;;;;;;21.10;9.52;;;;;;;;;;6244508;28;20392;-68
2022/01/08 10:03:23;;;;;;;23.38;9.98;;;;;;;;;;6245116;28;20207;-66
2022/01/08 10:06:29;;;;;;;19.17;9.18;;;;;;;;;;6244988;28;20099;-66
2022/01/08 10:09:35;;;;;;;19.23;9.75;;;;;;;;;;6244619;28;20233;-66
2022/01/08 10:12:43;;;;;;;20.25;8.98;;;;;;;;;;6243036;28;20052;-67
2022/01/08 10:19:17;;;;;;;23.02;11.13;;;;;;;;;;6244493;28;20045;-68
2022/01/08 10:22:20;;;;;;;18.52;9.43;;;;;;;;;;6242720;28;20052;-67
2022/01/08 10:25:25;;;;;;;20.27;10.23;;;;;;;;;;6242423;28;20061;-67
2022/01/08 10:28:32;;;;;;;23.40;10.93;;;;;;;;;;6245013;28;20462;-67
2022/01/08 10:31:39;;;;;;;27.00;11.13;;;;;;;;;;6244247;28;20080;-67
2022/01/08 10:34:48;;;;;;;24.30;10.38;;;;;;;;;;6242293;28;20124;-67
2022/01/08 10:37:52;;;;;;;21.98;10.77;;;;;;;;;;6244847;28;20538;-67
2022/01/08 10:40:55;;;;;;;21.25;11.35;;;;;;;;;;6244210;28;20057;-67
2022/01/08 10:44:05;;;;;;;23.80;10.73;;;;;;;;;;6243615;28;20049;-67
2022/01/08 10:47:13;;;;;;;23.98;10.70;;;;;;;;;;6242236;28;20139;-68
2022/01/08 10:50:23;;;;;;;27.73;11.40;;;;;;;;;;6244169;28;20443;-67
2022/01/08 10:53:47;;;;;;;26.67;11.68;;;;;;;;;;6243527;28;20051;-67
2022/01/08 10:56:51;;;;;;;25.02;11.73;;;;;;;;;;6243607;28;20048;-67
2022/01/08 10:59:56;;;;;;;22.98;11.25;;;;;;;;;;6243412;28;20060;-68
2022/01/08 11:03:00;;;;;;;26.55;11.43;;;;;;;;;;6242517;28;20412;-68
2022/01/08 11:06:04;;;;;;;21.90;11.73;;;;;;;;;;6243241;28;20060;-67
2022/01/08 11:09:07;;;;;;;24.35;10.77;;;;;;;;;;6243078;28;20318;-67
2022/01/08 11:12:13;;;;;;;23.63;11.88;;;;;;;;;;6242471;28;20056;-66
2022/01/08 11:15:48;;;;;;;20.70;11.30;;;;;;;;;;6243088;28;20045;-66
2022/01/08 11:18:53;;;;;;;;;;;;;;;;;;6243471;28;20048;-66
2022/01/08 11:21:57;;;;;;;23.13;10.38;;;;;;;;;;6242574;28;19933;-66
2022/01/08 11:25:01;;;;;;;20.48;11.13;;;;;;;;;;6242190;28;20041;-66
2022/01/08 11:28:05;;;;;;;21.33;9.70;;;;;;;;;;6242788;28;20431;-67
2022/01/08 11:31:10;;;;;;;24.58;10.82;;;;;;;;;;6242303;28;20403;-68
2022/01/08 11:34:16;;;;;;;20.33;9.73;;;;;;;;;;6243164;28;20049;-69
2022/01/08 11:37:22;;;;;;;21.48;10.35;;;;;;;;;;6240629;28;20151;-66
2022/01/08 11:40:26;;;;;;;20.50;10.18;;;;;;;;;;6242868;28;20211;-67
2022/01/08 11:43:30;;;;;;;19.15;9.68;;;;;;;;;;6242217;28;20156;-67
2022/01/08 11:46:35;;;;;;;18.92;9.05;;;;;;;;;;6242132;28;20095;-68
2022/01/08 11:49:40;;;;;;;20.17;9.00;;;;;;;;;;6242525;28;20049;-68
2022/01/08 11:52:45;;;;;;;23.07;10.07;;;;;;;;;;6241922;28;20049;-66
2022/01/08 11:55:48;;;;;;;18.58;9.45;;;;;;;;;;6242815;28;20292;-66
2022/01/08 11:59:05;;;;;;;19.13;8.73;;;;;;;;;;6242333;28;20331;-68
2022/01/08 12:02:09;;;;;;;20.77;10.23;;;;;;;;;;6242066;28;20053;-67
2022/01/08 12:05:13;;;;;;;16.98;9.05;;;;;;;;;;6240385;28;20042;-67
2022/01/08 12:08:19;;;;;;;18.63;8.55;;;;;;;;;;6241456;28;20045;-68
2022/01/08 12:11:22;;;;;;;18.25;8.73;;;;;;;;;;6242705;28;20042;-66
2022/01/08 12:14:26;;;;;;;16.50;8.27;;;;;;;;;;6240439;28;20056;-66
2022/01/08 12:17:31;;;;;;;;;;;;;;;;;;6242946;28;20053;-67
2022/01/08 12:20:44;;;;;;;17.20;8.90;;;;;;;;;;6242189;28;19921;-66
2022/01/08 12:23:48;;;;;;;15.27;7.40;;;;;;;;;;6240593;28;20391;-67
2022/01/08 12:26:51;;;;;;;15.93;8.32;;;;;;;;;;6241473;28;20056;-67
2022/01/08 12:29:56;;;;;;;16.05;8.57;;;;;;;;;;6242596;28;20480;-67
2022/01/08 12:33:14;;;;;;;17.23;8.48;;;;;;;;;;6242308;28;20036;-68
2022/01/08 12:36:25;;;;;;;16.50;8.73;;;;;;;;;;6241479;28;20041;-67
2022/01/08 12:39:43;;;;;;;17.27;8.80;;;;;;;;;;6240231;28;20053;-66
2022/01/08 12:42:47;;;;;;;15.60;8.40;;;;;;;;;;6241018;28;20052;-65
2022/01/08 12:45:51;;;;;;;19.27;9.02;;;;;;;;;;6240348;28;20045;-66
2022/01/08 12:49:15;;;;;;;18.90;8.57;;;;;;;;;;6243587;28;20053;-66
2022/01/08 12:52:18;;;;;;;17.15;9.05;;;;;;;;;;6246565;28;20045;-66
2022/01/08 12:55:21;;;;;;;20.88;9.60;;;;;;;;;;6245491;28;20476;-66
2022/01/08 12:58:27;;;;;;;17.85;8.35;;;;;;;;;;6245269;28;20151;-66
2022/01/08 13:01:30;;;;;;;16.25;8.23;;;;;;;;;;6244667;28;20042;-67
2022/01/08 13:04:35;;;;;;;14.70;7.63;;;;;;;;;;6246885;28;20055;-66
2022/01/08 13:07:47;;;;;;;14.65;7.28;;;;;;;;;;6246047;28;20492;-66
2022/01/08 13:10:54;;;;;;;18.05;7.32;;;;;;;;;;6246060;28;20049;-67
2022/01/08 13:14:00;;;;;;;12.82;6.70;;;;;;;;;;6246119;28;20045;-68
2022/01/08 13:17:05;;;;;;;14.30;7.35;;;;;;;;;;6244934;28;20393;-66
2022/01/08 13:20:09;;;;;;;19.27;7.30;;;;;;;;;;6246015;28;20042;-66
2022/01/08 13:23:12;;;;;;;13.02;6.95;;;;;;;;;;6245095;28;20049;-66
2022/01/08 13:26:15;;;;;;;14.02;7.55;;;;;;;;;;6246303;28;20056;-66
2022/01/08 13:29:24;;;;;;;16.83;7.90;;;;;;;;;;6244306;28;20494;-66
2022/01/08 13:32:27;;;;;;;16.00;8.10;;;;;;;;;;6243960;28;20050;-66
2022/01/08 13:35:33;;;;;;;13.77;7.60;;;;;;;;;;6246190;28;20054;-66
2022/01/08 13:38:37;;;;;;;17.02;7.55;;;;;;;;;;6245658;28;20049;-68
2022/01/08 13:41:40;;;;;;;14.27;7.03;;;;;;;;;;6243932;28;20056;-66
2022/01/08 13:44:46;;;;;;;14.73;7.82;;;;;;;;;;6243542;28;20088;-68
2022/01/08 13:47:49;;;;;;;12.23;7.13;;;;;;;;;;6244588;28;20045;-69
2022/01/08 13:50:58;;;;;;;16.35;7.25;;;;;;;;;;6245055;28;20419;-66
2022/01/08 13:54:02;;;;;;;15.05;7.30;;;;;;;;;;6244644;28;20059;-67
2022/01/08 13:57:11;;;;;;;18.27;7.57;;;;;;;;;;6245280;28;20052;-67
2022/01/08 14:00:17;;;;;;;18.13;7.57;;;;;;;;;;6244088;28;20472;-66
2022/01/08 14:03:23;;;;;;;18.55;8.02;;;;;;;;;;6244943;28;20053;-66
2022/01/08 14:06:30;;;;;;;20.98;8.18;;;;;;;;;;6244382;28;20068;-67
2022/01/08 14:09:33;;;;;;;14.88;6.95;;;;;;;;;;6243962;28;20046;-66
2022/01/08 14:12:39;;;;;;;14.93;7.68;;;;;;;;;;6244687;28;20115;-67
2022/01/08 14:15:49;;;;;;;16.33;7.78;;;;;;;;;;6244308;28;20046;-66
2022/01/08 14:18:52;;;;;;;16.10;7.38;;;;;;;;;;6244672;28;20096;-66
2022/01/08 14:21:57;;;;;;;13.65;7.40;;;;;;;;;;6244833;28;20049;-66
2022/01/08 14:25:00;;;;;;;18.13;8.40;;;;;;;;;;6243083;28;20359;-68
2022/01/08 14:28:13;;;;;;;14.43;8.38;;;;;;;;;;6242456;28;20546;-67
2022/01/08 14:31:19;;;;;;;17.55;8.02;;;;;;;;;;6244846;28;20413;-68
2022/01/08 14:34:22;;;;;;;14.98;8.23;;;;;;;;;;6244276;28;20076;-67
2022/01/08 14:37:27;;;;;;;15.68;7.72;;;;;;;;;;6243765;28;20076;-66
2022/01/08 14:40:31;;;;;;;13.32;7.18;;;;;;;;;;6243730;28;20057;-66
2022/01/08 14:43:37;;;;;;;15.10;7.95;;;;;;;;;;6243049;28;20077;-68
2022/01/08 14:46:49;;;;;;;16.92;8.68;;;;;;;;;;6243784;28;20045;-68
2022/01/08 14:49:52;;;;;;;14.65;7.30;;;;;;;;;;6243167;28;20049;-68
2022/01/08 14:53:00;;;;;;;15.63;7.70;;;;;;;;;;6244186;28;20037;-68
2022/01/08 14:56:07;;;;;;;15.80;8.15;;;;;;;;;;6243866;28;20680;-67
2022/01/08 14:59:13;;;;;;;18.05;7.65;;;;;;;;;;6243337;28;20054;-66
2022/01/08 15:02:17;;;;;;;16.90;7.75;;;;;;;;;;6243425;28;20110;-67
2022/01/08 15:05:20;;;;;;;14.57;7.25;;;;;;;;;;6243898;28;20052;-67
2022/01/08 15:08:23;;;;;;;16.83;8.65;;;;;;;;;;6241873;28;20494;-67
2022/01/08 15:11:26;;;;;;;19.77;8.55;;;;;;;;;;6242482;28;20068;-67
2022/01/08 15:14:29;;;;;;;17.63;8.23;;;;;;;;;;6243781;28;20053;-67
2022/01/08 15:17:33;;;;;;;15.93;8.23;;;;;;;;;;6243134;28;20413;-67
2022/01/08 15:20:56;;;;;;;16.58;8.45;;;;;;;;;;6242739;28;20077;-66
2022/01/08 15:23:59;;;;;;;16.92;8.40;;;;;;;;;;6242727;28;20412;-66
2022/01/08 15:27:02;;;;;;;17.10;8.35;;;;;;;;;;6243400;28;20460;-68
2022/01/08 15:30:06;;;;;;;16.67;8.10;;;;;;;;;;6243256;28;20045;-67
2022/01/08 15:33:10;;;;;;;23.17;8.43;;;;;;;;;;6242219;28;20049;-68
2022/01/08 15:36:13;;;;;;;18.95;9.00;;;;;;;;;;6241999;28;20099;-68
2022/01/08 15:39:17;;;;;;;31.10;9.82;;;;;;;;;;6242689;28;20135;-68
2022/01/08 15:42:20;;;;;;;20.85;9.73;;;;;;;;;;6242067;28;20096;-68
2022/01/08 15:45:23;;;;;;;23.73;8.85;;;;;;;;;;6242365;28;20132;-68
2022/01/08 15:48:28;;;;;;;19.55;8.55;;;;;;;;;;6241533;28;20159;-67
2022/01/08 15:51:31;;;;;;;19.73;8.25;;;;;;;;;;6242197;28;20060;-68
2022/01/08 15:54:35;;;;;;;16.27;7.93;;;;;;;;;;6241938;28;20092;-67
2022/01/08 15:57:38;;;;;;;18.33;8.25;;;;;;;;;;6242900;28;20075;-67
2022/01/08 16:00:41;;;;;;;18.40;8.00;;;;;;;;;;6242221;28;20476;-68
2022/01/08 16:03:45;;;;;;;17.63;9.65;;;;;;;;;;6241942;28;20049;-69
2022/01/08 16:06:50;;;;;;;18.23;8.52;;;;;;;;;;6241282;28;20111;-69
2022/01/08 16:09:55;;;;;;;20.95;9.70;;;;;;;;;;6242773;28;20053;-68
2022/01/08 16:12:58;;;;;;;18.30;8.38;;;;;;;;;;6241905;28;20068;-68
2022/01/08 16:16:03;;;;;;;19.13;9.18;;;;;;;;;;6241828;28;20056;-69
2022/01/08 16:19:07;;;;;;;18.15;9.45;;;;;;;;;;6242679;28;20042;-68
2022/01/08 16:22:10;;;;;;;18.70;8.75;;;;;;;;;;6240809;28;20049;-68
2022/01/08 16:25:13;;;;;;;19.60;8.75;;;;;;;;;;6245063;28;20065;-69
2022/01/08 16:28:18;;;;;;;23.08;9.98;;;;;;;;;;6247405;28;20041;-68
2022/01/08 16:31:23;;;;;;;19.00;9.40;;;;;;;;;;6247144;28;20060;-68
2022/01/08 16:34:27;;;;;;;17.83;9.50;;;;;;;;;;6246691;28;20423;-68
2022/01/08 16:37:30;;;;;;;20.15;9.88;;;;;;;;;;6246669;28;20045;-67
2022/01/08 16:40:34;;;;;;;22.70;10.25;;;;;;;;;;6246870;28;20057;-68
2022/01/08 16:43:37;;;;;;;21.42;10.10;;;;;;;;;;6245197;28;20381;-66
2022/01/08 16:46:40;;;;;;;22.27;9.75;;;;;;;;;;6245908;28;20049;-66
2022/01/08 16:49:45;;;;;;;19.63;9.18;;;;;;;;;;6245730;28;20512;-67
2022/01/08 16:52:48;;;;;;;19.60;8.82;;;;;;;;;;6246274;28;20511;-67
2022/01/08 16:55:52;;;;;;;19.85;9.68;;;;;;;;;;6246383;28;20049;-67
2022/01/08 16:58:55;;;;;;;23.48;10.77;;;;;;;;;;6246383;28;20049;-67
2022/01/08 17:02:00;;;;;;;24.80;10.38;;;;;;;;;;6246660;28;20061;-67
2022/01/08 17:05:05;;;;;;;22.20;10.10;;;;;;;;;;6246083;28;20136;-67
2022/01/08 17:08:08;;;;;;;18.50;9.88;;;;;;;;;;6245605;28;20140;-67
2022/01/08 17:11:14;;;;;;;19.25;9.82;;;;;;;;;;6246513;28;20121;-68
2022/01/08 17:14:17;;;;;;;26.13;10.35;;;;;;;;;;6246000;28;20056;-66
2022/01/08 17:17:20;;;;;;;21.30;9.75;;;;;;;;;;6244243;28;20055;-67
2022/01/08 17:20:24;;;;;;;23.00;9.85;;;;;;;;;;6246478;28;20046;-67
2022/01/08 17:23:29;;;;;;;19.88;9.30;;;;;;;;;;6246031;28;20056;-68
2022/01/08 17:26:32;;;;;;;22.85;10.40;;;;;;;;;;6245542;28;20104;-66
2022/01/08 17:29:34;;;;;;;23.35;9.68;;;;;;;;;;6245459;28;20042;-67
2022/01/08 17:32:38;;;;;;;18.85;9.43;;;;;;;;;;6245271;28;20041;-66
2022/01/08 17:35:42;;;;;;;21.98;10.23;;;;;;;;;;6245317;28;20404;-68
2022/01/08 17:38:45;;;;;;;21.92;10.52;;;;;;;;;;6243625;28;20042;-67
2022/01/08 17:41:48;;;;;;;22.17;10.32;;;;;;;;;;6245691;28;20136;-69
2022/01/08 17:44:51;;;;;;;23.45;11.40;;;;;;;;;;6245487;28;20041;-67
2022/01/08 17:47:53;;;;;;;23.58;11.32;;;;;;;;;;6244891;28;20054;-66
2022/01/08 17:50:59;;;;;;;24.55;11.32;;;;;;;;;;6244898;28;20093;-66
2022/01/08 17:54:02;;;;;;;24.33;11.25;;;;;;;;;;6244326;28;20056;-67
2022/01/08 17:57:05;;;;;;;26.90;12.00;;;;;;;;;;6243639;28;20050;-67
2022/01/08 18:00:10;;;;;;;28.10;13.50;;;;;;;;;;6244466;28;20160;-67
2022/01/08 18:03:13;;;;;;;28.23;13.25;;;;;;;;;;6245392;28;20049;-67
2022/01/08 18:06:18;;;;;;;26.70;12.93;;;;;;;;;;6243584;28;20061;-68
2022/01/08 18:09:21;;;;;;;28.67;13.88;;;;;;;;;;6244438;28;20049;-67
2022/01/08 18:12:24;;;;;;;27.38;14.25;;;;;;;;;;6243517;28;20476;-68
2022/01/08 18:15:27;;;;;;;27.85;13.15;;;;;;;;;;6243751;28;20049;-68
2022/01/08 18:18:30;;;;;;;29.73;13.77;;;;;;;;;;6244398;28;20419;-69
2022/01/08 18:21:34;;;;;;;25.98;12.77;;;;;;;;;;6243830;28;20046;-67
2022/01/08 18:24:37;;;;;;;28.75;14.15;;;;;;;;;;6244946;28;20496;-68